createdAt,value
2022-12-03T00:02:18.106Z,18.41
2022-12-03T00:04:44.783Z,18.51
2022-12-03T00:07:11.393Z,18.56
2022-12-03T00:09:37.863Z,18.55
2022-12-03T00:12:04.625Z,18.52
2022-12-03T00:14:31.131Z,18.54
2022-12-03T00:16:57.610Z,18.55
2022-12-03T00:19:24.147Z,18.53
2022-12-03T00:21:50.689Z,18.52
2022-12-03T00:24:17.736Z,18.51
2022-12-03T00:26:44.366Z,18.54
2022-12-03T00:29:11.329Z,18.54
2022-12-03T00:31:37.905Z,18.53
2022-12-03T00:34:04.500Z,18.48
2022-12-03T00:36:31.041Z,18.52
2022-12-03T00:38:57.517Z,18.53
2022-12-03T00:41:24.081Z,18.51
2022-12-03T00:43:50.585Z,18.51
2022-12-03T00:46:21.375Z,18.47
2022-12-03T00:48:48.362Z,18.50
2022-12-03T00:51:14.902Z,18.50
2022-12-03T00:53:41.473Z,18.50
2022-12-03T00:56:08.288Z,18.49
2022-12-03T00:58:34.981Z,18.42
2022-12-03T01:01:01.542Z,18.48
2022-12-03T01:03:28.321Z,18.49
2022-12-03T01:05:54.900Z,18.47
2022-12-03T01:08:21.497Z,18.43
2022-12-03T01:10:47.993Z,18.47
2022-12-03T01:13:14.568Z,18.47
2022-12-03T01:15:41.204Z,18.46
2022-12-03T01:18:07.712Z,18.45
2022-12-03T01:20:36.239Z,18.44
2022-12-03T01:23:02.813Z,18.45
2022-12-03T01:25:29.353Z,18.37
2022-12-03T01:27:55.930Z,18.43
2022-12-03T01:30:22.549Z,18.42
2022-12-03T01:32:49.269Z,18.38
2022-12-03T01:35:15.827Z,18.43
2022-12-03T01:37:42.394Z,18.36
2022-12-03T01:40:11.856Z,18.43
2022-12-03T01:42:41.127Z,18.39
2022-12-03T01:45:11.919Z,18.41
2022-12-03T01:47:38.622Z,18.40
2022-12-03T01:50:27.532Z,18.38
2022-12-03T01:52:55.724Z,18.37
2022-12-03T01:55:23.684Z,18.37
2022-12-03T01:57:51.841Z,18.38
2022-12-03T02:00:23.977Z,18.39
2022-12-03T02:02:54.971Z,18.39
2022-12-03T02:05:24.962Z,18.39
2022-12-03T02:07:53.243Z,18.35
2022-12-03T02:10:23.817Z,18.38
2022-12-03T02:13:06.061Z,18.37
2022-12-03T02:15:32.651Z,18.38
2022-12-03T02:17:59.465Z,18.35
2022-12-03T02:20:26.445Z,18.31
2022-12-03T02:23:03.475Z,18.32
2022-12-03T02:25:32.865Z,18.35
2022-12-03T02:27:59.977Z,18.35
2022-12-03T02:30:28.356Z,18.31
2022-12-03T02:32:56.456Z,18.34
2022-12-03T02:35:28.988Z,18.35
2022-12-03T02:37:59.363Z,18.33
2022-12-03T02:40:29.170Z,18.31
2022-12-03T02:42:59.139Z,18.33
2022-12-03T02:45:28.883Z,18.31
2022-12-03T02:48:07.990Z,18.33
2022-12-03T02:50:41.673Z,18.32
2022-12-03T02:53:12.245Z,18.32
2022-12-03T02:55:39.098Z,18.31
2022-12-03T02:58:06.218Z,18.32
2022-12-03T03:00:33.653Z,18.32
2022-12-03T03:03:01.326Z,18.31
2022-12-03T03:05:28.083Z,18.31
2022-12-03T03:07:55.165Z,18.26
2022-12-03T03:10:22.911Z,18.30
2022-12-03T03:12:50.063Z,18.31
2022-12-03T03:15:16.710Z,18.26
2022-12-03T03:17:43.419Z,18.31
2022-12-03T03:20:10.572Z,18.31
2022-12-03T03:22:39.724Z,18.28
2022-12-03T03:25:08.107Z,18.29
2022-12-03T03:27:34.500Z,18.29
2022-12-03T03:30:01.161Z,18.27
2022-12-03T03:32:28.375Z,18.28
2022-12-03T03:34:55.778Z,18.24
2022-12-03T03:37:22.674Z,18.28
2022-12-03T03:39:49.417Z,18.29
2022-12-03T03:42:16.157Z,18.28
2022-12-03T03:44:42.725Z,18.28
2022-12-03T03:47:09.533Z,18.28
2022-12-03T03:49:36.422Z,18.29
2022-12-03T03:52:03.457Z,18.22
2022-12-03T03:54:30.535Z,18.26
2022-12-03T03:56:57.297Z,18.27
2022-12-03T03:59:23.856Z,18.28
2022-12-03T04:01:50.410Z,18.20
2022-12-03T04:04:22.704Z,18.25
2022-12-03T04:06:49.347Z,18.26
2022-12-03T04:09:16.070Z,18.26
2022-12-03T04:12:01.149Z,18.26
2022-12-03T04:14:27.715Z,18.23
2022-12-03T04:16:54.302Z,18.25
2022-12-03T04:19:20.816Z,18.25
2022-12-03T04:22:05.668Z,18.24
2022-12-03T04:24:32.160Z,18.25
2022-12-03T04:27:17.269Z,18.22
2022-12-03T04:29:43.840Z,18.25
2022-12-03T04:32:28.669Z,18.17
2022-12-03T04:35:13.740Z,18.24
2022-12-03T04:37:40.930Z,18.23
2022-12-03T04:40:27.983Z,18.24
2022-12-03T04:42:54.517Z,18.22
2022-12-03T04:45:21.073Z,18.20
2022-12-03T04:47:47.616Z,18.23
2022-12-03T04:50:14.157Z,18.18
2022-12-03T04:52:40.866Z,18.24
2022-12-03T04:55:07.797Z,18.20
2022-12-03T04:57:34.330Z,18.21
2022-12-03T05:00:00.866Z,18.21
2022-12-03T05:02:27.481Z,18.23
2022-12-03T05:04:54.299Z,18.23
2022-12-03T05:07:21.086Z,18.21
2022-12-03T05:09:47.646Z,18.21
2022-12-03T05:12:14.191Z,18.21
2022-12-03T05:14:40.760Z,18.12
2022-12-03T05:17:07.307Z,18.21
2022-12-03T05:19:52.474Z,18.17
2022-12-03T05:22:18.963Z,18.14
2022-12-03T05:24:45.521Z,18.20
2022-12-03T05:27:12.095Z,18.19
2022-12-03T05:29:38.680Z,18.14
2022-12-03T05:32:05.465Z,18.10
2022-12-03T05:34:32.024Z,18.18
2022-12-03T05:36:58.594Z,18.19
2022-12-03T05:39:25.612Z,18.13
2022-12-03T05:42:10.522Z,18.11
2022-12-03T05:44:37.052Z,18.17
2022-12-03T05:47:03.575Z,18.14
2022-12-03T05:49:30.069Z,18.16
2022-12-03T05:51:58.666Z,18.16
2022-12-03T05:54:25.749Z,18.11
2022-12-03T05:56:52.239Z,18.16
2022-12-03T05:59:18.798Z,18.12
2022-12-03T06:01:45.376Z,18.09
2022-12-03T06:04:11.970Z,18.11
2022-12-03T06:06:38.543Z,18.15
2022-12-03T06:09:05.372Z,18.14
2022-12-03T06:11:34.124Z,18.13
2022-12-03T06:14:01.161Z,18.14
2022-12-03T06:16:27.733Z,18.13
2022-12-03T06:18:54.363Z,18.15
2022-12-03T06:21:20.936Z,18.15
2022-12-03T06:23:47.495Z,18.14
2022-12-03T06:26:14.429Z,18.12
2022-12-03T06:28:45.527Z,18.14
2022-12-03T06:31:12.971Z,18.20
2022-12-03T06:33:39.619Z,18.18
2022-12-03T06:36:06.631Z,18.24
2022-12-03T06:38:33.190Z,18.28
2022-12-03T06:40:59.747Z,18.31
2022-12-03T06:43:26.284Z,18.36
2022-12-03T06:45:52.990Z,18.38
2022-12-03T06:48:19.550Z,18.40
2022-12-03T06:50:46.157Z,18.46
2022-12-03T06:53:12.734Z,18.35
2022-12-03T06:55:39.289Z,18.47
2022-12-03T06:58:05.771Z,18.49
2022-12-03T07:00:32.269Z,18.59
2022-12-03T07:02:58.841Z,18.62
2022-12-03T07:05:25.480Z,18.59
2022-12-03T07:07:55.259Z,18.67
2022-12-03T07:10:22.271Z,18.61
2022-12-03T07:12:48.828Z,18.74
2022-12-03T07:15:15.417Z,18.71
2022-12-03T07:17:41.972Z,18.79
2022-12-03T07:20:08.976Z,18.79
2022-12-03T07:22:35.546Z,18.82
2022-12-03T07:25:02.092Z,18.87
2022-12-03T07:27:28.631Z,18.90
2022-12-03T07:29:55.140Z,18.93
2022-12-03T07:32:21.621Z,18.92
2022-12-03T07:34:48.173Z,18.98
2022-12-03T07:37:18.639Z,18.99
2022-12-03T07:39:48.021Z,19.04
2022-12-03T07:42:14.590Z,19.01
2022-12-03T07:44:41.160Z,19.01
2022-12-03T07:47:07.814Z,19.07
2022-12-03T07:49:34.395Z,19.07
2022-12-03T07:52:00.898Z,19.09
2022-12-03T07:54:27.552Z,19.14
2022-12-03T07:56:59.623Z,19.15
2022-12-03T07:59:27.946Z,19.18
2022-12-03T08:01:54.524Z,19.19
2022-12-03T08:04:21.452Z,19.17
2022-12-03T08:06:48.240Z,19.24
2022-12-03T08:09:16.356Z,19.24
2022-12-03T08:11:45.085Z,19.27
2022-12-03T08:14:13.557Z,19.27
2022-12-03T08:16:40.659Z,19.31
2022-12-03T08:19:15.621Z,19.31
2022-12-03T08:21:42.188Z,19.34
2022-12-03T08:24:13.609Z,19.36
2022-12-03T08:26:40.757Z,19.37
2022-12-03T08:29:18.993Z,19.38
2022-12-03T08:31:52.146Z,19.38
2022-12-03T08:34:27.774Z,19.38
2022-12-03T08:37:08.403Z,19.39
2022-12-03T08:39:39.242Z,19.43
2022-12-03T08:42:31.118Z,19.42
2022-12-03T08:45:39.407Z,19.49
2022-12-03T08:48:27.312Z,19.52
2022-12-03T08:50:58.088Z,19.52
2022-12-03T08:53:27.671Z,19.55
2022-12-03T08:55:57.141Z,19.56
2022-12-03T08:58:40.844Z,19.51
2022-12-03T09:01:10.607Z,19.58
2022-12-03T09:03:39.580Z,19.44
2022-12-03T09:06:06.483Z,19.51
2022-12-03T09:08:33.028Z,19.44
2022-12-03T09:10:59.656Z,19.52
2022-12-03T09:13:26.171Z,19.54
2022-12-03T09:15:52.729Z,19.55
2022-12-03T09:18:19.228Z,19.45
2022-12-03T09:20:45.783Z,19.50
2022-12-03T09:23:12.300Z,19.44
2022-12-03T09:25:38.778Z,19.44
2022-12-03T09:28:05.553Z,19.51
2022-12-03T09:30:32.106Z,19.50
2022-12-03T09:32:59.987Z,19.41
2022-12-03T09:35:27.287Z,19.48
2022-12-03T09:37:53.880Z,19.47
2022-12-03T09:40:20.892Z,19.23
2022-12-03T09:42:47.511Z,19.46
2022-12-03T09:45:15.261Z,19.36
2022-12-03T09:47:44.321Z,19.45
2022-12-03T09:50:14.334Z,19.44
2022-12-03T09:52:40.928Z,19.40
2022-12-03T09:55:19.496Z,19.32
2022-12-03T09:57:46.060Z,19.42
2022-12-03T10:00:18.543Z,19.42
2022-12-03T10:02:46.899Z,19.40
2022-12-03T10:05:13.993Z,19.42
2022-12-03T10:07:41.102Z,19.38
2022-12-03T10:10:15.525Z,19.41
2022-12-03T10:12:42.090Z,19.39
2022-12-03T10:15:13.857Z,19.29
2022-12-03T10:17:40.805Z,19.39
2022-12-03T10:20:11.476Z,19.25
2022-12-03T10:22:38.065Z,19.36
2022-12-03T10:25:10.458Z,19.34
2022-12-03T10:27:37.076Z,19.32
2022-12-03T10:30:14.686Z,19.35
2022-12-03T10:32:49.282Z,19.34
2022-12-03T10:35:18.713Z,19.34
2022-12-03T10:38:02.408Z,19.33
2022-12-03T10:40:39.155Z,19.22
2022-12-03T10:43:17.848Z,19.33
2022-12-03T10:45:45.439Z,19.32
2022-12-03T10:48:17.773Z,19.30
2022-12-03T10:50:49.906Z,19.29
2022-12-03T10:53:17.444Z,19.24
2022-12-03T10:55:45.424Z,19.27
2022-12-03T10:58:23.806Z,19.27
2022-12-03T11:00:52.190Z,19.27
2022-12-03T11:03:28.286Z,19.22
2022-12-03T11:05:56.161Z,19.26
2022-12-03T11:08:27.860Z,19.24
2022-12-03T11:11:03.361Z,19.20
2022-12-03T11:13:32.606Z,19.25
2022-12-03T11:16:03.355Z,19.25
2022-12-03T11:18:50.177Z,19.17
2022-12-03T11:21:17.476Z,19.24
2022-12-03T11:23:46.686Z,19.24
2022-12-03T11:26:18.985Z,19.18
2022-12-03T11:28:46.203Z,19.22
2022-12-03T11:31:38.893Z,19.21
2022-12-03T11:34:20.830Z,19.21
2022-12-03T11:37:09.255Z,19.22
2022-12-03T11:39:45.143Z,19.21
2022-12-03T11:42:26.643Z,19.19
2022-12-03T11:45:11.190Z,19.19
2022-12-03T11:47:47.455Z,19.18
2022-12-03T11:50:39.033Z,19.14
2022-12-03T11:53:13.771Z,19.14
2022-12-03T11:55:48.345Z,19.17
2022-12-03T11:58:28.902Z,19.16
2022-12-03T12:00:58.339Z,19.15
2022-12-03T12:03:27.687Z,19.11
2022-12-03T12:06:11.733Z,19.14
2022-12-03T12:08:51.605Z,19.07
2022-12-03T12:11:27.221Z,19.13
2022-12-03T12:13:56.420Z,19.06
2022-12-03T12:16:42.214Z,19.13
2022-12-03T12:19:28.136Z,19.10
2022-12-03T12:21:55.323Z,19.11
2022-12-03T12:24:40.530Z,19.12
2022-12-03T12:27:09.800Z,19.10
2022-12-03T12:29:37.730Z,19.08
2022-12-03T12:32:10.649Z,19.10
2022-12-03T12:34:41.444Z,19.06
2022-12-03T12:37:22.998Z,19.09
2022-12-03T12:39:53.617Z,19.08
2022-12-03T12:42:37.663Z,18.98
2022-12-03T12:45:15.747Z,19.07
2022-12-03T12:47:49.245Z,19.07
2022-12-03T12:50:18.304Z,19.04
2022-12-03T12:53:26.578Z,19.07
2022-12-03T12:56:06.279Z,19.01
2022-12-03T12:58:33.268Z,19.08
2022-12-03T13:01:05.170Z,19.13
2022-12-03T13:03:37.418Z,19.25
2022-12-03T13:06:04.165Z,19.39
2022-12-03T13:08:40.540Z,19.54
2022-12-03T13:11:31.969Z,19.64
2022-12-03T13:13:58.565Z,19.81
2022-12-03T13:16:31.584Z,19.87
2022-12-03T13:18:59.539Z,20.02
2022-12-03T13:21:44.221Z,20.10
2022-12-03T13:24:34.004Z,20.25
2022-12-03T13:27:07.566Z,20.31
2022-12-03T13:29:34.122Z,20.32
2022-12-03T13:32:03.240Z,20.38
2022-12-03T13:34:33.906Z,20.30
2022-12-03T13:37:01.505Z,20.38
2022-12-03T13:39:35.143Z,20.44
2022-12-03T13:42:26.563Z,20.40
2022-12-03T13:44:53.457Z,20.49
2022-12-03T13:47:22.348Z,20.58
2022-12-03T13:49:52.061Z,20.59
2022-12-03T13:52:24.325Z,20.47
2022-12-03T13:54:52.983Z,20.61
2022-12-03T13:57:22.035Z,20.50
2022-12-03T13:59:48.903Z,20.55
2022-12-03T14:02:15.661Z,20.55
2022-12-03T14:04:42.299Z,20.54
2022-12-03T14:07:08.859Z,20.61
2022-12-03T14:09:35.415Z,20.40
2022-12-03T14:12:20.497Z,20.46
2022-12-03T14:14:47.058Z,20.44
2022-12-03T14:17:13.756Z,20.32
2022-12-03T14:19:40.353Z,20.40
2022-12-03T14:22:09.270Z,20.30
2022-12-03T14:24:37.117Z,20.12
2022-12-03T14:27:03.759Z,20.17
2022-12-03T14:29:30.387Z,20.14
2022-12-03T14:31:57.196Z,20.17
2022-12-03T14:34:23.734Z,20.00
2022-12-03T14:36:50.486Z,19.99
2022-12-03T14:39:17.143Z,19.86
2022-12-03T14:42:02.216Z,19.87
2022-12-03T14:44:28.803Z,19.86
2022-12-03T14:46:57.499Z,19.85
2022-12-03T14:49:24.382Z,19.77
2022-12-03T14:51:50.934Z,19.75
2022-12-03T14:54:17.612Z,19.31
2022-12-03T14:56:44.217Z,18.39
2022-12-03T14:59:10.825Z,18.62
2022-12-03T15:01:37.527Z,18.69
2022-12-03T15:04:04.199Z,18.78
2022-12-03T15:06:30.770Z,18.80
2022-12-03T15:08:57.347Z,18.78
2022-12-03T15:11:23.929Z,19.21
2022-12-03T15:13:50.531Z,19.17
2022-12-03T15:16:17.169Z,19.36
2022-12-03T15:18:45.348Z,19.68
2022-12-03T15:21:11.940Z,19.47
2022-12-03T15:23:38.588Z,19.87
2022-12-03T15:26:05.287Z,20.02
2022-12-03T15:28:31.823Z,19.92
2022-12-03T15:30:58.665Z,20.21
2022-12-03T15:33:25.621Z,20.23
2022-12-03T15:35:52.181Z,20.44
2022-12-03T15:38:19.336Z,20.37
2022-12-03T15:40:45.978Z,20.56
2022-12-03T15:43:12.647Z,20.39
2022-12-03T15:45:39.255Z,20.39
2022-12-03T15:48:06.016Z,20.58
2022-12-03T15:50:38.452Z,20.59
2022-12-03T15:53:06.584Z,20.73
2022-12-03T15:55:33.217Z,20.62
2022-12-03T15:57:59.758Z,20.56
2022-12-03T16:00:26.320Z,20.56
2022-12-03T16:02:53.298Z,20.56
2022-12-03T16:05:20.180Z,20.69
2022-12-03T16:07:46.787Z,20.62
2022-12-03T16:10:13.560Z,20.67
2022-12-03T16:12:40.238Z,20.64
2022-12-03T16:15:06.973Z,21.00
2022-12-03T16:17:33.748Z,20.87
2022-12-03T16:20:15.429Z,20.70
2022-12-03T16:22:42.077Z,20.94
2022-12-03T16:25:08.732Z,20.90
2022-12-03T16:27:37.003Z,20.74
2022-12-03T16:30:06.591Z,20.81
2022-12-03T16:32:33.167Z,20.64
2022-12-03T16:34:59.686Z,20.68
2022-12-03T16:37:26.285Z,20.86
2022-12-03T16:39:53.089Z,20.77
2022-12-03T16:42:19.801Z,20.83
2022-12-03T16:45:04.612Z,20.70
2022-12-03T16:47:34.171Z,20.87
2022-12-03T16:50:07.456Z,20.81
2022-12-03T16:52:34.503Z,20.89
2022-12-03T16:55:01.047Z,20.82
2022-12-03T16:57:33.116Z,20.83
2022-12-03T17:00:00.256Z,21.01
2022-12-03T17:02:27.452Z,21.12
2022-12-03T17:04:54.338Z,21.11
2022-12-03T17:07:20.892Z,20.94
2022-12-03T17:09:47.484Z,21.11
2022-12-03T17:12:14.059Z,20.97
2022-12-03T17:14:40.559Z,21.05
2022-12-03T17:17:07.109Z,20.65
2022-12-03T17:19:33.688Z,20.56
2022-12-03T17:22:00.255Z,20.45
2022-12-03T17:24:26.908Z,20.51
2022-12-03T17:26:53.430Z,20.51
2022-12-03T17:29:19.909Z,20.44
2022-12-03T17:31:46.539Z,20.17
2022-12-03T17:34:13.153Z,20.15
2022-12-03T17:36:39.676Z,20.16
2022-12-03T17:39:06.280Z,20.09
2022-12-03T17:41:35.204Z,19.96
2022-12-03T17:44:04.805Z,19.93
2022-12-03T17:46:35.743Z,19.80
2022-12-03T17:49:02.347Z,20.00
2022-12-03T17:51:29.056Z,19.64
2022-12-03T17:53:55.650Z,19.62
2022-12-03T17:56:22.153Z,19.89
2022-12-03T17:58:48.899Z,19.80
2022-12-03T18:01:15.565Z,19.52
2022-12-03T18:03:44.562Z,19.75
2022-12-03T18:06:11.190Z,19.76
2022-12-03T18:08:37.751Z,19.52
2022-12-03T18:11:04.409Z,19.39
2022-12-03T18:13:30.904Z,19.23
2022-12-03T18:15:57.596Z,19.42
2022-12-03T18:18:24.211Z,19.54
2022-12-03T18:20:52.693Z,19.55
2022-12-03T18:23:19.358Z,19.29
2022-12-03T18:25:45.922Z,19.22
2022-12-03T18:28:12.474Z,19.20
2022-12-03T18:30:39.119Z,19.09
2022-12-03T18:33:05.788Z,19.27
2022-12-03T18:35:32.439Z,19.33
2022-12-03T18:37:59.004Z,19.37
2022-12-03T18:40:27.175Z,19.32
2022-12-03T18:42:54.093Z,19.38
2022-12-03T18:45:20.668Z,19.23
2022-12-03T18:47:47.440Z,19.37
2022-12-03T18:50:14.640Z,19.35
2022-12-03T18:52:41.227Z,19.31
2022-12-03T18:55:08.481Z,19.17
2022-12-03T18:57:35.012Z,19.20
2022-12-03T19:00:10.314Z,19.28
2022-12-03T19:03:01.945Z,19.05
2022-12-03T19:05:26.389Z,19.27
2022-12-03T19:07:55.108Z,19.24
2022-12-03T19:10:22.166Z,19.23
2022-12-03T19:12:49.802Z,19.21
2022-12-03T19:15:16.807Z,19.12
2022-12-03T19:17:48.066Z,19.06
2022-12-03T19:20:14.913Z,19.16
2022-12-03T19:22:41.488Z,18.98
2022-12-03T19:25:08.266Z,19.12
2022-12-03T19:27:34.784Z,19.10
2022-12-03T19:30:01.340Z,19.11
2022-12-03T19:32:27.905Z,18.97
2022-12-03T19:34:54.584Z,19.13
2022-12-03T19:37:21.166Z,19.04
2022-12-03T19:39:47.803Z,18.94
2022-12-03T19:42:14.375Z,18.89
2022-12-03T19:44:40.953Z,18.87
2022-12-03T19:47:07.486Z,18.96
2022-12-03T19:49:34.052Z,19.01
2022-12-03T19:52:00.598Z,19.28
2022-12-03T19:54:27.154Z,19.34
2022-12-03T19:56:53.679Z,19.45
2022-12-03T19:59:20.239Z,19.78
2022-12-03T20:01:46.979Z,19.77
2022-12-03T20:04:13.699Z,19.58
2022-12-03T20:06:40.362Z,19.84
2022-12-03T20:09:12.347Z,19.85
2022-12-03T20:11:40.395Z,19.89
2022-12-03T20:14:10.273Z,19.96
2022-12-03T20:16:37.038Z,19.98
2022-12-03T20:19:05.759Z,20.02
2022-12-03T20:21:34.245Z,20.09
2022-12-03T20:24:01.036Z,20.12
2022-12-03T20:26:27.839Z,20.23
2022-12-03T20:28:55.191Z,20.24
2022-12-03T20:31:23.458Z,20.17
2022-12-03T20:33:51.797Z,20.26
2022-12-03T20:36:18.816Z,20.25
2022-12-03T20:38:45.509Z,20.31
2022-12-03T20:41:14.680Z,20.33
2022-12-03T20:43:41.330Z,20.42
2022-12-03T20:46:13.276Z,20.77
2022-12-03T20:48:40.601Z,20.48
2022-12-03T20:51:10.118Z,20.34
2022-12-03T20:53:37.234Z,20.41
2022-12-03T20:56:05.605Z,20.39
2022-12-03T20:58:32.210Z,20.39
2022-12-03T21:01:16.730Z,20.38
2022-12-03T21:03:44.289Z,20.40
2022-12-03T21:06:11.842Z,20.35
2022-12-03T21:08:41.900Z,20.39
2022-12-03T21:11:10.770Z,20.34
2022-12-03T21:13:41.047Z,20.33
2022-12-03T21:16:09.334Z,20.34
2022-12-03T21:18:35.918Z,20.51
2022-12-03T21:21:03.208Z,20.39
2022-12-03T21:23:30.738Z,20.47
2022-12-03T21:26:11.864Z,20.50
2022-12-03T21:28:39.559Z,20.56
2022-12-03T21:31:08.908Z,20.52
2022-12-03T21:33:36.239Z,20.60
2022-12-03T21:36:04.625Z,20.51
2022-12-03T21:38:31.414Z,20.58
2022-12-03T21:40:58.649Z,20.49
2022-12-03T21:43:25.775Z,20.47
2022-12-03T21:45:52.675Z,20.56
2022-12-03T21:48:19.838Z,20.63
2022-12-03T21:50:46.897Z,20.60
2022-12-03T21:53:13.405Z,20.81
2022-12-03T21:55:40.794Z,20.48
2022-12-03T21:58:08.238Z,20.64
2022-12-03T22:00:35.065Z,20.48
2022-12-03T22:03:01.803Z,20.58
2022-12-03T22:05:28.393Z,20.48
2022-12-03T22:07:54.916Z,20.54
2022-12-03T22:10:21.533Z,20.56
2022-12-03T22:12:48.063Z,20.57
2022-12-03T22:15:18.718Z,20.69
2022-12-03T22:17:45.800Z,20.46
2022-12-03T22:20:12.468Z,20.51
2022-12-03T22:22:39.079Z,20.64
2022-12-03T22:25:05.744Z,20.71
2022-12-03T22:27:32.409Z,20.84
2022-12-03T22:29:58.991Z,20.73
2022-12-03T22:32:25.701Z,20.73
2022-12-03T22:34:52.206Z,20.70
2022-12-03T22:37:18.739Z,20.70
2022-12-03T22:39:45.306Z,20.56
2022-12-03T22:42:11.806Z,20.57
2022-12-03T22:44:38.363Z,20.64
2022-12-03T22:47:04.987Z,20.82
2022-12-03T22:49:31.605Z,20.85
2022-12-03T22:51:58.112Z,20.69
2022-12-03T22:54:24.704Z,20.88
2022-12-03T22:56:51.252Z,20.85
2022-12-03T22:59:17.863Z,20.80
2022-12-03T23:01:44.508Z,20.91
2022-12-03T23:04:11.599Z,20.72
2022-12-03T23:06:38.488Z,20.87
2022-12-03T23:09:06.821Z,20.77
2022-12-03T23:11:33.283Z,20.77
2022-12-03T23:14:00.029Z,20.70
2022-12-03T23:16:29.910Z,20.47
2022-12-03T23:19:00.816Z,20.58
2022-12-03T23:21:30.499Z,20.54
2022-12-03T23:24:01.925Z,20.54
2022-12-03T23:26:28.989Z,20.51
2022-12-03T23:28:55.735Z,20.71
2022-12-03T23:31:27.286Z,20.91
2022-12-03T23:33:54.003Z,20.78
2022-12-03T23:36:21.085Z,20.66
2022-12-03T23:38:47.877Z,20.80
2022-12-03T23:41:16.575Z,20.74
2022-12-03T23:43:43.189Z,20.72
2022-12-03T23:46:16.814Z,20.99
2022-12-03T23:48:43.593Z,20.56
2022-12-03T23:51:12.622Z,20.54
2022-12-03T23:53:39.820Z,20.55
2022-12-03T23:56:08.317Z,20.44
2022-12-03T23:58:35.154Z,20.13
